Main page
METAR-TAF:

METAR-TAF

Airports :

Passo Rolle, Italy

latitude: 46-18N, longitude: 011-47E, elevation: 2004 m

Current weather observation

The report was made 2 hours and 31 minutes ago, at 13:55 UTC
Wind 12 kt from the Southeast
Temperature -3°C
Humidity 93%
Pressure 1006 hPa
Visibility: 4000 m
Broken clouds at a height of 1500 ft

METAR: LIVR 171355Z 14012KT 9999 4000S BKN015 M03/M04 Q1006 RMK OVC MON GEN INC VIS MIN 4000S

Time: 17:26 (16:26 UTC)


TAF: missing

Weather observations and forecasts of more than 4000 airports (METAR and TAF reports).

The available stations are represented by yellow and red dots on the map.

Hover mouse over dot to see the name of the station.

Then click to see weather observations and forecasts.

To change the map : click on the green buttons with a black cross to zoom in, on the green button with a dash to zoom out, or on the green arrows for adjacent maps.


METAR-TAF: